createdAt,value
2023-05-22T00:00:19.034Z,1007.16
2023-05-22T00:01:19.015Z,1007.15
2023-05-22T00:02:19.074Z,1007.16
2023-05-22T00:03:19.011Z,1007.18
2023-05-22T00:04:18.986Z,1007.14
2023-05-22T00:05:19.033Z,1007.17
2023-05-22T00:06:18.979Z,1007.18
2023-05-22T00:07:18.971Z,1007.15
2023-05-22T00:08:18.950Z,1007.10
2023-05-22T00:09:18.933Z,1007.09
2023-05-22T00:10:18.941Z,1007.11
2023-05-22T00:11:18.911Z,1007.06
2023-05-22T00:12:18.969Z,1007.07
2023-05-22T00:13:18.889Z,1007.08
2023-05-22T00:14:18.892Z,1007.09
2023-05-22T00:15:18.870Z,1007.05
2023-05-22T00:16:18.860Z,1007.05
2023-05-22T00:17:19.006Z,1007.08
2023-05-22T00:18:18.840Z,1007.03
2023-05-22T00:19:18.878Z,1007.05
2023-05-22T00:20:18.833Z,1007.05
2023-05-22T00:21:18.808Z,1007.06
2023-05-22T00:22:18.810Z,1007.04
2023-05-22T00:23:18.791Z,1006.98
2023-05-22T00:24:18.777Z,1006.98
2023-05-22T00:25:18.765Z,1006.96
2023-05-22T00:26:18.759Z,1007.01
2023-05-22T00:27:18.748Z,1006.96
2023-05-22T00:28:18.752Z,1006.95
2023-05-22T00:29:18.734Z,1006.95
2023-05-22T00:30:18.716Z,1006.94
2023-05-22T00:31:18.706Z,1006.89
2023-05-22T00:32:18.692Z,1006.93
2023-05-22T00:33:18.683Z,1006.91
2023-05-22T00:34:18.712Z,1006.92
2023-05-22T00:35:18.666Z,1006.92
2023-05-22T00:36:18.688Z,1006.92
2023-05-22T00:37:18.642Z,1006.93
2023-05-22T00:38:18.635Z,1006.92
2023-05-22T00:39:18.637Z,1006.92
2023-05-22T00:40:18.620Z,1006.94
2023-05-22T00:41:18.599Z,1006.93
2023-05-22T00:42:18.618Z,1006.91
2023-05-22T00:43:18.582Z,1006.92
2023-05-22T00:44:18.594Z,1006.92
2023-05-22T00:45:18.560Z,1006.90
2023-05-22T00:46:18.600Z,1006.93
2023-05-22T00:47:18.540Z,1006.93
2023-05-22T00:48:18.530Z,1006.91
2023-05-22T00:49:18.520Z,1006.91
2023-05-22T00:50:18.510Z,1006.89
2023-05-22T00:51:18.498Z,1006.89
2023-05-22T00:52:18.499Z,1006.89
2023-05-22T00:53:18.493Z,1006.91
2023-05-22T00:54:18.466Z,1006.88
2023-05-22T00:55:18.455Z,1006.82
2023-05-22T00:56:18.450Z,1006.90
2023-05-22T00:57:18.435Z,1006.84
2023-05-22T00:58:18.427Z,1006.87
2023-05-22T00:59:18.414Z,1006.86
2023-05-22T01:00:18.442Z,1006.84
2023-05-22T01:01:18.475Z,1006.85
2023-05-22T01:02:18.397Z,1006.84
2023-05-22T01:03:18.550Z,1006.83
2023-05-22T01:04:18.524Z,1006.86
2023-05-22T01:05:18.509Z,1006.86
2023-05-22T01:06:18.360Z,1006.85
2023-05-22T01:07:18.329Z,1006.84
2023-05-22T01:08:18.324Z,1006.84
2023-05-22T01:09:18.309Z,1006.85
2023-05-22T01:10:18.299Z,1006.80
2023-05-22T01:11:18.293Z,1006.81
2023-05-22T01:12:18.280Z,1006.82
2023-05-22T01:13:18.266Z,1006.82
2023-05-22T01:14:18.259Z,1006.79
2023-05-22T01:15:18.250Z,1006.78
2023-05-22T01:16:18.460Z,1006.83
2023-05-22T01:17:18.223Z,1006.80
2023-05-22T01:18:18.216Z,1006.79
2023-05-22T01:19:18.300Z,1006.79
2023-05-22T01:20:18.197Z,1006.84
2023-05-22T01:21:18.199Z,1006.84
2023-05-22T01:22:18.186Z,1006.79
2023-05-22T01:23:18.162Z,1006.84
2023-05-22T01:24:18.155Z,1006.85
2023-05-22T01:25:18.139Z,1006.82
2023-05-22T01:26:18.132Z,1006.84
2023-05-22T01:27:18.124Z,1006.84
2023-05-22T01:28:18.114Z,1006.79
2023-05-22T01:29:18.101Z,1006.81
2023-05-22T01:30:18.103Z,1006.77
2023-05-22T01:31:18.100Z,1006.79
2023-05-22T01:32:18.092Z,1006.78
2023-05-22T01:33:18.202Z,1006.74
2023-05-22T01:34:18.051Z,1006.79
2023-05-22T01:35:18.037Z,1006.75
2023-05-22T01:36:18.031Z,1006.74
2023-05-22T01:37:18.029Z,1006.78
2023-05-22T01:38:18.009Z,1006.79
2023-05-22T01:39:18.036Z,1006.78
2023-05-22T01:40:17.990Z,1006.77
2023-05-22T01:41:17.989Z,1006.78
2023-05-22T01:42:17.987Z,1006.75
2023-05-22T01:43:18.000Z,1006.79
2023-05-22T01:44:17.960Z,1006.82
2023-05-22T01:45:17.947Z,1006.83
2023-05-22T01:46:18.082Z,1006.78
2023-05-22T01:47:17.937Z,1006.80
2023-05-22T01:48:17.949Z,1006.80
2023-05-22T01:49:17.899Z,1006.82
2023-05-22T01:50:17.888Z,1006.81
2023-05-22T01:51:17.874Z,1006.80
2023-05-22T01:52:17.867Z,1006.82
2023-05-22T01:53:17.858Z,1006.78
2023-05-22T01:54:17.846Z,1006.78
2023-05-22T01:55:17.834Z,1006.76
2023-05-22T01:56:17.858Z,1006.77
2023-05-22T01:57:17.819Z,1006.72
2023-05-22T01:58:17.811Z,1006.74
2023-05-22T01:59:17.792Z,1006.73
2023-05-22T02:00:17.800Z,1006.74
2023-05-22T02:01:17.851Z,1006.74
2023-05-22T02:02:17.814Z,1006.72
2023-05-22T02:03:17.950Z,1006.74
2023-05-22T02:04:17.766Z,1006.80
2023-05-22T02:05:17.734Z,1006.77
2023-05-22T02:06:17.722Z,1006.72
2023-05-22T02:07:17.710Z,1006.70
2023-05-22T02:08:17.702Z,1006.74
2023-05-22T02:09:17.698Z,1006.71
2023-05-22T02:10:17.688Z,1006.70
2023-05-22T02:11:17.682Z,1006.71
2023-05-22T02:12:17.662Z,1006.68
2023-05-22T02:13:17.650Z,1006.70
2023-05-22T02:14:17.639Z,1006.70
2023-05-22T02:15:17.624Z,1006.67
2023-05-22T02:16:17.822Z,1006.70
2023-05-22T02:17:17.606Z,1006.70
2023-05-22T02:18:17.600Z,1006.67
2023-05-22T02:19:17.699Z,1006.66
2023-05-22T02:20:17.596Z,1006.65
2023-05-22T02:21:17.565Z,1006.64
2023-05-22T02:22:17.557Z,1006.69
2023-05-22T02:23:17.551Z,1006.65
2023-05-22T02:24:17.542Z,1006.64
2023-05-22T02:25:17.830Z,1006.62
2023-05-22T02:26:17.516Z,1006.62
2023-05-22T02:27:17.508Z,1006.63
2023-05-22T02:28:17.495Z,1006.62
2023-05-22T02:29:17.481Z,1006.59
2023-05-22T02:30:17.482Z,1006.59
2023-05-22T02:31:17.520Z,1006.58
2023-05-22T02:32:17.453Z,1006.55
2023-05-22T02:33:17.440Z,1006.52
2023-05-22T02:34:17.433Z,1006.50
2023-05-22T02:35:17.424Z,1006.52
2023-05-22T02:36:17.569Z,1006.50
2023-05-22T02:37:17.400Z,1006.54
2023-05-22T02:38:17.393Z,1006.51
2023-05-22T02:39:17.382Z,1006.49
2023-05-22T02:40:17.373Z,1006.48
2023-05-22T02:41:17.355Z,1006.47
2023-05-22T02:42:17.349Z,1006.49
2023-05-22T02:43:17.342Z,1006.45
2023-05-22T02:44:17.341Z,1006.46
2023-05-22T02:45:17.314Z,1006.43
2023-05-22T02:46:17.317Z,1006.38
2023-05-22T02:47:17.293Z,1006.36
2023-05-22T02:48:17.338Z,1006.35
2023-05-22T02:49:17.281Z,1006.35
2023-05-22T02:50:17.276Z,1006.33
2023-05-22T02:51:17.252Z,1006.31
2023-05-22T02:52:17.261Z,1006.29
2023-05-22T02:53:17.237Z,1006.29
2023-05-22T02:54:17.226Z,1006.27
2023-05-22T02:55:17.223Z,1006.24
2023-05-22T02:56:17.209Z,1006.22
2023-05-22T02:57:17.188Z,1006.21
2023-05-22T02:58:17.178Z,1006.21
2023-05-22T02:59:17.176Z,1006.19
2023-05-22T03:00:17.160Z,1006.16
2023-05-22T03:01:17.183Z,1006.15
2023-05-22T03:02:17.137Z,1006.13
2023-05-22T03:03:17.206Z,1006.11
2023-05-22T03:04:17.119Z,1006.06
2023-05-22T03:05:17.113Z,1006.08
2023-05-22T03:06:17.106Z,1006.07
2023-05-22T03:07:17.088Z,1006.07
2023-05-22T03:08:17.093Z,1006.03
2023-05-22T03:09:17.061Z,1006.04
2023-05-22T03:10:17.053Z,1006.06
2023-05-22T03:11:17.042Z,1006.01
2023-05-22T03:12:17.037Z,1006.01
2023-05-22T03:13:17.030Z,1005.97
2023-05-22T03:14:17.024Z,1005.97
2023-05-22T03:15:17.008Z,1006.00
2023-05-22T03:16:17.113Z,1005.99
2023-05-22T03:17:16.993Z,1006.03
2023-05-22T03:18:16.972Z,1005.98
2023-05-22T03:19:17.012Z,1006.02
2023-05-22T03:20:17.189Z,1006.05
2023-05-22T03:21:16.941Z,1006.02
2023-05-22T03:22:16.938Z,1006.08
2023-05-22T03:23:16.920Z,1006.06
2023-05-22T03:24:16.935Z,1006.02
2023-05-22T03:25:16.895Z,1006.04
2023-05-22T03:26:16.890Z,1006.07
2023-05-22T03:27:16.887Z,1006.05
2023-05-22T03:28:16.880Z,1006.07
2023-05-22T03:29:16.908Z,1006.11
2023-05-22T03:30:16.865Z,1006.10
2023-05-22T03:31:16.837Z,1006.13
2023-05-22T03:32:16.835Z,1006.17
2023-05-22T03:33:16.835Z,1006.10
2023-05-22T03:34:16.830Z,1006.14
2023-05-22T03:35:16.811Z,1006.15
2023-05-22T03:36:16.786Z,1006.10
2023-05-22T03:37:16.788Z,1006.12
2023-05-22T03:38:16.777Z,1006.15
2023-05-22T03:39:16.756Z,1006.15
2023-05-22T03:40:16.787Z,1006.15
2023-05-22T03:41:16.734Z,1006.17
2023-05-22T03:42:16.724Z,1006.14
2023-05-22T03:43:16.717Z,1006.16
2023-05-22T03:44:16.710Z,1006.15
2023-05-22T03:45:16.695Z,1006.19
2023-05-22T03:46:16.755Z,1006.15
2023-05-22T03:47:16.683Z,1006.15
2023-05-22T03:48:16.664Z,1006.15
2023-05-22T03:49:16.647Z,1006.18
2023-05-22T03:50:16.647Z,1006.17
2023-05-22T03:51:18.120Z,1006.17
2023-05-22T03:52:16.623Z,1006.17
2023-05-22T03:53:16.611Z,1006.18
2023-05-22T03:54:16.599Z,1006.12
2023-05-22T03:55:16.588Z,1006.15
2023-05-22T03:56:16.613Z,1006.13
2023-05-22T03:57:16.564Z,1006.12
2023-05-22T03:58:16.556Z,1006.11
2023-05-22T03:59:16.585Z,1006.11
2023-05-22T04:00:16.533Z,1006.07
2023-05-22T04:01:16.520Z,1006.12
2023-05-22T04:02:16.548Z,1006.11
2023-05-22T04:03:16.707Z,1006.08
2023-05-22T04:04:16.514Z,1006.06
2023-05-22T04:05:16.503Z,1006.07
2023-05-22T04:06:16.469Z,1006.06
2023-05-22T04:07:16.453Z,1006.04
2023-05-22T04:08:16.444Z,1006.05
2023-05-22T04:09:16.441Z,1006.04
2023-05-22T04:10:16.433Z,1006.03
2023-05-22T04:11:16.414Z,1006.06
2023-05-22T04:12:16.421Z,1006.02
2023-05-22T04:13:16.402Z,1006.02
2023-05-22T04:14:16.383Z,1006.01
2023-05-22T04:15:16.368Z,1006.07
2023-05-22T04:16:16.424Z,1006.07
2023-05-22T04:17:16.359Z,1006.09
2023-05-22T04:18:16.338Z,1006.07
2023-05-22T04:19:16.351Z,1006.07
2023-05-22T04:20:16.314Z,1006.09
2023-05-22T04:21:16.310Z,1006.09
2023-05-22T04:22:16.303Z,1006.10
2023-05-22T04:23:16.288Z,1006.10
2023-05-22T04:24:16.273Z,1006.08
2023-05-22T04:25:16.270Z,1006.08
2023-05-22T04:26:16.250Z,1006.08
2023-05-22T04:27:16.254Z,1006.11
2023-05-22T04:28:16.251Z,1006.09
2023-05-22T04:29:16.221Z,1006.04
2023-05-22T04:30:16.209Z,1006.09
2023-05-22T04:31:16.264Z,1006.10
2023-05-22T04:32:16.190Z,1006.15
2023-05-22T04:33:16.185Z,1006.14
2023-05-22T04:34:16.174Z,1006.15
2023-05-22T04:35:16.159Z,1006.11
2023-05-22T04:36:16.151Z,1006.10
2023-05-22T04:37:16.139Z,1006.15
2023-05-22T04:38:16.136Z,1006.09
2023-05-22T04:39:16.146Z,1006.11
2023-05-22T04:40:16.104Z,1006.12
2023-05-22T04:41:16.096Z,1006.11
2023-05-22T04:42:16.170Z,1006.14
2023-05-22T04:43:16.078Z,1006.15
2023-05-22T04:44:16.089Z,1006.15
2023-05-22T04:45:16.071Z,1006.14
2023-05-22T04:46:16.086Z,1006.16
2023-05-22T04:47:16.037Z,1006.18
2023-05-22T04:48:16.036Z,1006.22
2023-05-22T04:49:16.018Z,1006.19
2023-05-22T04:50:16.004Z,1006.23
2023-05-22T04:51:16.037Z,1006.21
2023-05-22T04:52:15.982Z,1006.21
2023-05-22T04:53:15.974Z,1006.25
2023-05-22T04:54:15.959Z,1006.21
2023-05-22T04:55:15.956Z,1006.21
2023-05-22T04:56:21.336Z,1006.19
2023-05-22T04:57:16.962Z,1006.19
2023-05-22T04:58:15.922Z,1006.20
2023-05-22T04:59:15.912Z,1006.16
2023-05-22T05:00:15.925Z,1006.19
2023-05-22T05:01:15.936Z,1006.17
2023-05-22T05:02:15.882Z,1006.16
2023-05-22T05:03:15.960Z,1006.19
2023-05-22T05:04:15.858Z,1006.19
2023-05-22T05:05:15.855Z,1006.18
2023-05-22T05:06:15.850Z,1006.21
2023-05-22T05:07:15.827Z,1006.15
2023-05-22T05:08:15.818Z,1006.17
2023-05-22T05:09:15.811Z,1006.20
2023-05-22T05:10:15.792Z,1006.22
2023-05-22T05:11:15.786Z,1006.19
2023-05-22T05:12:15.773Z,1006.23
2023-05-22T05:13:15.764Z,1006.19
2023-05-22T05:14:15.765Z,1006.22
2023-05-22T05:15:15.743Z,1006.22
2023-05-22T05:16:15.771Z,1006.26
2023-05-22T05:17:15.738Z,1006.24
2023-05-22T05:18:15.748Z,1006.22
2023-05-22T05:19:15.732Z,1006.25
2023-05-22T05:20:15.716Z,1006.26
2023-05-22T05:21:15.681Z,1006.29
2023-05-22T05:22:15.688Z,1006.25
2023-05-22T05:23:15.669Z,1006.26
2023-05-22T05:24:15.651Z,1006.27
2023-05-22T05:25:15.646Z,1006.29
2023-05-22T05:26:15.627Z,1006.30
2023-05-22T05:27:15.618Z,1006.31
2023-05-22T05:28:15.605Z,1006.33
2023-05-22T05:29:15.599Z,1006.30
2023-05-22T05:30:16.488Z,1006.33
2023-05-22T05:31:15.582Z,1006.29
2023-05-22T05:32:15.622Z,1006.28
2023-05-22T05:33:15.634Z,1006.31
2023-05-22T05:34:15.546Z,1006.31
2023-05-22T05:35:15.536Z,1006.30
2023-05-22T05:36:15.518Z,1006.30
2023-05-22T05:37:15.517Z,1006.33
2023-05-22T05:38:15.503Z,1006.32
2023-05-22T05:39:15.495Z,1006.32
2023-05-22T05:40:15.481Z,1006.35
2023-05-22T05:41:15.481Z,1006.36
2023-05-22T05:42:15.463Z,1006.40
2023-05-22T05:43:15.452Z,1006.40
2023-05-22T05:44:15.443Z,1006.41
2023-05-22T05:45:15.439Z,1006.43
2023-05-22T05:46:15.444Z,1006.46
2023-05-22T05:47:15.407Z,1006.48
2023-05-22T05:48:15.419Z,1006.49
2023-05-22T05:49:15.402Z,1006.46
2023-05-22T05:50:15.385Z,1006.44
2023-05-22T05:51:15.383Z,1006.46
2023-05-22T05:52:15.369Z,1006.40
2023-05-22T05:53:15.349Z,1006.43
2023-05-22T05:54:15.336Z,1006.42
2023-05-22T05:55:15.338Z,1006.41
2023-05-22T05:56:15.322Z,1006.44
2023-05-22T05:57:15.305Z,1006.46
2023-05-22T05:58:15.293Z,1006.47
2023-05-22T05:59:15.285Z,1006.43
2023-05-22T06:00:15.278Z,1006.38
2023-05-22T06:01:15.267Z,1006.43
2023-05-22T06:02:15.282Z,1006.45
2023-05-22T06:03:15.329Z,1006.46
2023-05-22T06:04:15.260Z,1006.44
2023-05-22T06:05:15.250Z,1006.46
2023-05-22T06:06:15.213Z,1006.51
2023-05-22T06:07:15.200Z,1006.42
2023-05-22T06:08:15.198Z,1006.49
2023-05-22T06:09:15.184Z,1006.45
2023-05-22T06:10:15.174Z,1006.47
2023-05-22T06:11:15.160Z,1006.49
2023-05-22T06:12:15.149Z,1006.48
2023-05-22T06:13:15.140Z,1006.53
2023-05-22T06:14:15.137Z,1006.50
2023-05-22T06:15:15.124Z,1006.46
2023-05-22T06:16:15.155Z,1006.51
2023-05-22T06:17:15.104Z,1006.50
2023-05-22T06:18:15.091Z,1006.47
2023-05-22T06:19:15.095Z,1006.49
2023-05-22T06:20:15.117Z,1006.51
2023-05-22T06:21:15.061Z,1006.48
2023-05-22T06:22:15.073Z,1006.48
2023-05-22T06:23:15.047Z,1006.46
2023-05-22T06:24:15.032Z,1006.44
2023-05-22T06:25:15.026Z,1006.48
2023-05-22T06:26:15.011Z,1006.45
2023-05-22T06:27:15.004Z,1006.47
2023-05-22T06:28:14.990Z,1006.42
2023-05-22T06:29:14.980Z,1006.43
2023-05-22T06:30:20.235Z,1006.47
2023-05-22T06:31:15.987Z,1006.46
2023-05-22T06:32:14.985Z,1006.52
2023-05-22T06:33:15.065Z,1006.48
2023-05-22T06:34:14.972Z,1006.51
2023-05-22T06:35:14.931Z,1006.49
2023-05-22T06:36:15.031Z,1006.48
2023-05-22T06:37:14.896Z,1006.49
2023-05-22T06:38:14.895Z,1006.49
2023-05-22T06:39:14.881Z,1006.51
2023-05-22T06:40:14.896Z,1006.51
2023-05-22T06:41:14.890Z,1006.50
2023-05-22T06:42:14.850Z,1006.54
2023-05-22T06:43:14.837Z,1006.56
2023-05-22T06:44:14.844Z,1006.59
2023-05-22T06:45:14.822Z,1006.59
2023-05-22T06:46:14.851Z,1006.62
2023-05-22T06:47:14.797Z,1006.67
2023-05-22T06:48:14.784Z,1006.67
2023-05-22T06:49:14.775Z,1006.61
2023-05-22T06:50:14.767Z,1006.64
2023-05-22T06:51:14.754Z,1006.64
2023-05-22T06:52:14.768Z,1006.67
2023-05-22T06:53:14.745Z,1006.62
2023-05-22T06:54:14.726Z,1006.67
2023-05-22T06:55:14.722Z,1006.66
2023-05-22T06:56:14.705Z,1006.67
2023-05-22T06:57:14.707Z,1006.68
2023-05-22T06:58:14.686Z,1006.67
2023-05-22T06:59:14.682Z,1006.65
2023-05-22T07:00:14.686Z,1006.66
2023-05-22T07:01:14.704Z,1006.69
2023-05-22T07:02:14.645Z,1006.67
2023-05-22T07:03:14.728Z,1006.71
2023-05-22T07:04:14.626Z,1006.70
2023-05-22T07:05:14.626Z,1006.71
2023-05-22T07:06:14.759Z,1006.78
2023-05-22T07:07:14.596Z,1006.77
2023-05-22T07:08:14.672Z,1006.76
2023-05-22T07:09:14.584Z,1006.82
2023-05-22T07:10:14.573Z,1006.77
2023-05-22T07:11:14.559Z,1006.76
2023-05-22T07:12:14.553Z,1006.73
2023-05-22T07:13:14.541Z,1006.74
2023-05-22T07:14:14.530Z,1006.73
2023-05-22T07:15:14.658Z,1006.74
2023-05-22T07:16:14.523Z,1006.76
2023-05-22T07:17:14.509Z,1006.80
2023-05-22T07:18:14.505Z,1006.77
2023-05-22T07:19:14.523Z,1006.75
2023-05-22T07:20:14.469Z,1006.76
2023-05-22T07:21:14.459Z,1006.80
2023-05-22T07:22:14.449Z,1006.85
2023-05-22T07:23:14.446Z,1006.84
2023-05-22T07:24:14.472Z,1006.85
2023-05-22T07:25:14.428Z,1006.85
2023-05-22T07:26:14.412Z,1006.90
2023-05-22T07:27:14.407Z,1006.88
2023-05-22T07:28:14.390Z,1006.90
2023-05-22T07:29:14.414Z,1006.87
2023-05-22T07:30:14.390Z,1006.92
2023-05-22T07:31:14.397Z,1006.91
2023-05-22T07:32:14.352Z,1006.86
2023-05-22T07:33:14.414Z,1006.89
2023-05-22T07:34:14.332Z,1006.91
2023-05-22T07:35:14.324Z,1006.93
2023-05-22T07:36:14.314Z,1006.90
2023-05-22T07:37:14.313Z,1006.97
2023-05-22T07:38:14.293Z,1006.92
2023-05-22T07:39:14.287Z,1006.95
2023-05-22T07:40:14.422Z,1006.92
2023-05-22T07:41:14.267Z,1006.90
2023-05-22T07:42:14.256Z,1006.91
2023-05-22T07:43:14.248Z,1006.92
2023-05-22T07:44:14.238Z,1006.93
2023-05-22T07:45:14.228Z,1006.94
2023-05-22T07:46:14.249Z,1006.96
2023-05-22T07:47:14.207Z,1006.89
2023-05-22T07:48:14.249Z,1006.86
2023-05-22T07:49:14.187Z,1006.85
2023-05-22T07:50:14.180Z,1006.90
2023-05-22T07:51:14.166Z,1006.92
2023-05-22T07:52:14.156Z,1006.93
2023-05-22T07:53:14.163Z,1006.91
2023-05-22T07:54:14.136Z,1006.89
2023-05-22T07:55:14.139Z,1006.87
2023-05-22T07:56:14.303Z,1006.88
2023-05-22T07:57:14.118Z,1006.93
2023-05-22T07:58:14.093Z,1006.89
2023-05-22T07:59:14.088Z,1006.87
2023-05-22T08:00:14.163Z,1006.89
2023-05-22T08:01:14.065Z,1006.89
2023-05-22T08:02:14.100Z,1006.90
2023-05-22T08:03:14.134Z,1006.89
2023-05-22T08:04:14.185Z,1006.87
2023-05-22T08:05:14.118Z,1006.90
2023-05-22T08:06:14.023Z,1006.87
2023-05-22T08:07:14.022Z,1006.91
2023-05-22T08:08:14.032Z,1006.91
2023-05-22T08:09:13.990Z,1006.91
2023-05-22T08:10:13.977Z,1006.95
2023-05-22T08:11:13.973Z,1006.93
2023-05-22T08:12:13.999Z,1006.96
2023-05-22T08:13:13.954Z,1006.97
2023-05-22T08:14:13.939Z,1007.00
2023-05-22T08:15:13.931Z,1006.99
2023-05-22T08:16:13.919Z,1006.97
2023-05-22T08:17:14.001Z,1006.95
2023-05-22T08:18:13.981Z,1006.90
2023-05-22T08:19:13.947Z,1006.92
2023-05-22T08:20:14.074Z,1006.97
2023-05-22T08:21:13.878Z,1006.93
2023-05-22T08:22:13.861Z,1006.96
2023-05-22T08:23:13.850Z,1006.98
2023-05-22T08:24:13.836Z,1006.98
2023-05-22T08:25:13.832Z,1006.96
2023-05-22T08:26:13.820Z,1006.92
2023-05-22T08:27:13.814Z,1006.93
2023-05-22T08:28:13.840Z,1006.92
2023-05-22T08:29:13.789Z,1006.87
2023-05-22T08:30:13.783Z,1006.92
2023-05-22T08:31:13.799Z,1006.89
2023-05-22T08:32:13.763Z,1006.91
2023-05-22T08:33:13.768Z,1006.88
2023-05-22T08:34:13.744Z,1006.89
2023-05-22T08:35:13.727Z,1006.94
2023-05-22T08:36:13.723Z,1006.95
2023-05-22T08:37:13.708Z,1006.93
2023-05-22T08:38:13.702Z,1006.90
2023-05-22T08:39:13.688Z,1006.92
2023-05-22T08:40:13.686Z,1006.86
2023-05-22T08:41:13.676Z,1006.86
2023-05-22T08:42:13.661Z,1006.91
2023-05-22T08:43:13.648Z,1006.92
2023-05-22T08:44:13.839Z,1006.92
2023-05-22T08:45:13.636Z,1006.89
2023-05-22T08:46:13.618Z,1006.88
2023-05-22T08:47:13.706Z,1006.93
2023-05-22T08:48:13.609Z,1006.92
2023-05-22T08:49:13.590Z,1006.91
2023-05-22T08:50:13.581Z,1006.87
2023-05-22T08:51:13.568Z,1006.84
2023-05-22T08:52:13.570Z,1006.90
2023-05-22T08:53:13.584Z,1006.91
2023-05-22T08:54:13.540Z,1006.92
2023-05-22T08:55:13.534Z,1006.86
2023-05-22T08:56:13.526Z,1006.87
2023-05-22T08:57:13.527Z,1006.89
2023-05-22T08:58:13.503Z,1006.91
2023-05-22T08:59:13.498Z,1006.91
2023-05-22T09:00:13.643Z,1006.89
2023-05-22T09:01:13.520Z,1006.85
2023-05-22T09:02:13.461Z,1006.87
2023-05-22T09:03:13.633Z,1006.85
2023-05-22T09:04:13.499Z,1006.87
2023-05-22T09:05:13.446Z,1006.85
2023-05-22T09:06:13.428Z,1006.87
2023-05-22T09:07:13.414Z,1006.91
2023-05-22T09:08:20.289Z,1006.90
2023-05-22T09:09:14.429Z,1006.89
2023-05-22T09:10:13.384Z,1006.89
2023-05-22T09:11:13.424Z,1006.93
2023-05-22T09:12:13.372Z,1006.93
2023-05-22T09:13:13.355Z,1006.94
2023-05-22T09:14:13.360Z,1006.88
2023-05-22T09:15:13.349Z,1006.94
2023-05-22T09:16:13.457Z,1006.92
2023-05-22T09:17:13.434Z,1006.92
2023-05-22T09:18:13.365Z,1006.93
2023-05-22T09:19:13.339Z,1006.88
2023-05-22T09:20:13.404Z,1006.89
2023-05-22T09:21:25.698Z,1006.91
2023-05-22T09:22:14.313Z,1006.94
2023-05-22T09:23:13.267Z,1006.90
2023-05-22T09:24:13.262Z,1006.90
2023-05-22T09:25:13.236Z,1006.94
2023-05-22T09:26:13.231Z,1006.91
2023-05-22T09:27:13.228Z,1006.99
2023-05-22T09:28:13.243Z,1006.93
2023-05-22T09:29:13.199Z,1006.97
2023-05-22T09:30:13.190Z,1006.94
2023-05-22T09:31:13.454Z,1007.00
2023-05-22T09:32:13.249Z,1006.92
2023-05-22T09:33:13.202Z,1007.00
2023-05-22T09:34:13.150Z,1006.96
2023-05-22T09:35:13.140Z,1007.02
2023-05-22T09:36:13.130Z,1007.01
2023-05-22T09:37:13.121Z,1006.98
2023-05-22T09:38:13.116Z,1007.04
2023-05-22T09:39:13.114Z,1007.05
2023-05-22T09:40:13.105Z,1006.95
2023-05-22T09:41:13.084Z,1007.01
2023-05-22T09:42:13.077Z,1006.97
2023-05-22T09:43:13.062Z,1007.01
2023-05-22T09:44:13.082Z,1006.93
2023-05-22T09:45:13.040Z,1006.97
2023-05-22T09:46:13.096Z,1006.94
2023-05-22T09:47:13.030Z,1006.95
2023-05-22T09:48:13.038Z,1006.98
2023-05-22T09:49:15.729Z,1006.92
2023-05-22T09:50:12.995Z,1006.93
2023-05-22T09:51:13.008Z,1006.89
2023-05-22T09:52:12.977Z,1006.94
2023-05-22T09:53:12.961Z,1006.94
2023-05-22T09:54:12.955Z,1006.94
2023-05-22T09:55:12.941Z,1006.96
2023-05-22T09:56:12.933Z,1006.94
2023-05-22T09:57:12.923Z,1006.99
2023-05-22T09:58:12.916Z,1006.95
2023-05-22T09:59:12.901Z,1006.99
2023-05-22T10:00:12.896Z,1006.93
2023-05-22T10:01:12.908Z,1006.99
2023-05-22T10:02:12.920Z,1006.96
2023-05-22T10:03:12.886Z,1006.95
2023-05-22T10:04:13.090Z,1006.95
2023-05-22T10:05:12.846Z,1006.95
2023-05-22T10:06:12.837Z,1006.96
2023-05-22T10:07:12.826Z,1006.90
2023-05-22T10:08:12.815Z,1006.93
2023-05-22T10:09:12.802Z,1006.97
2023-05-22T10:10:12.796Z,1006.92
2023-05-22T10:11:12.792Z,1006.89
2023-05-22T10:12:12.781Z,1006.91
2023-05-22T10:13:12.765Z,1006.88
2023-05-22T10:14:12.754Z,1006.94
2023-05-22T10:15:12.748Z,1006.96
2023-05-22T10:16:12.770Z,1006.98
2023-05-22T10:17:12.735Z,1006.99
2023-05-22T10:18:12.742Z,1007.00
2023-05-22T10:19:12.769Z,1007.03
2023-05-22T10:20:12.819Z,1007.04
2023-05-22T10:21:12.685Z,1007.01
2023-05-22T10:22:12.679Z,1007.05
2023-05-22T10:23:12.677Z,1007.04
2023-05-22T10:24:12.656Z,1006.92
2023-05-22T10:25:12.649Z,1006.90
2023-05-22T10:26:12.646Z,1006.96
2023-05-22T10:27:12.627Z,1006.97
2023-05-22T10:28:12.618Z,1006.95
2023-05-22T10:29:12.607Z,1006.96
2023-05-22T10:30:12.600Z,1006.99
2023-05-22T10:31:12.592Z,1006.98
2023-05-22T10:32:12.579Z,1006.96
2023-05-22T10:33:12.640Z,1006.90
2023-05-22T10:34:12.563Z,1006.89
2023-05-22T10:35:12.549Z,1006.90
2023-05-22T10:36:12.666Z,1006.88
2023-05-22T10:37:17.098Z,1006.88
2023-05-22T10:38:12.519Z,1006.90
2023-05-22T10:39:12.512Z,1006.89
2023-05-22T10:40:12.500Z,1006.90
2023-05-22T10:41:12.489Z,1006.86
2023-05-22T10:42:12.481Z,1006.85
2023-05-22T10:43:12.473Z,1006.88
2023-05-22T10:44:12.457Z,1006.86
2023-05-22T10:45:12.451Z,1006.88
2023-05-22T10:46:12.516Z,1006.83
2023-05-22T10:47:12.435Z,1006.86
2023-05-22T10:48:12.427Z,1006.81
2023-05-22T10:49:12.410Z,1006.86
2023-05-22T10:50:12.433Z,1006.86
2023-05-22T10:51:12.393Z,1006.80
2023-05-22T10:52:12.503Z,1006.79
2023-05-22T10:53:12.371Z,1006.81
2023-05-22T10:54:12.369Z,1006.84
2023-05-22T10:55:12.356Z,1006.84
2023-05-22T10:56:12.349Z,1006.82
2023-05-22T10:57:12.330Z,1006.78
2023-05-22T10:58:12.325Z,1006.85
2023-05-22T10:59:12.312Z,1006.77
2023-05-22T11:00:12.304Z,1006.78
2023-05-22T11:01:12.294Z,1006.77
2023-05-22T11:02:12.302Z,1006.77
2023-05-22T11:03:18.032Z,1006.70
2023-05-22T11:04:13.363Z,1006.75
2023-05-22T11:05:12.333Z,1006.73
2023-05-22T11:06:12.248Z,1006.77
2023-05-22T11:07:12.236Z,1006.76
2023-05-22T11:08:12.353Z,1006.75
2023-05-22T11:09:12.219Z,1006.76
2023-05-22T11:10:12.205Z,1006.76
2023-05-22T11:11:12.206Z,1006.73
2023-05-22T11:12:12.190Z,1006.75
2023-05-22T11:13:12.175Z,1006.77
2023-05-22T11:14:12.167Z,1006.77
2023-05-22T11:15:12.153Z,1006.78
2023-05-22T11:16:12.150Z,1006.77
2023-05-22T11:17:12.261Z,1006.75
2023-05-22T11:18:12.184Z,1006.75
2023-05-22T11:19:22.734Z,1006.75
2023-05-22T11:20:13.305Z,1006.71
2023-05-22T11:21:12.105Z,1006.70
2023-05-22T11:22:12.097Z,1006.71
2023-05-22T11:23:12.077Z,1006.62
2023-05-22T11:24:12.185Z,1006.66
2023-05-22T11:25:12.084Z,1006.68
2023-05-22T11:26:12.053Z,1006.67
2023-05-22T11:27:12.038Z,1006.65
2023-05-22T11:28:12.028Z,1006.65
2023-05-22T11:29:12.022Z,1006.65
2023-05-22T11:30:12.027Z,1006.64
2023-05-22T11:31:12.110Z,1006.60
2023-05-22T11:32:12.003Z,1006.62
2023-05-22T11:33:12.022Z,1006.64
2023-05-22T11:34:11.975Z,1006.63
2023-05-22T11:35:11.961Z,1006.60
2023-05-22T11:36:11.952Z,1006.63
2023-05-22T11:37:11.941Z,1006.61
2023-05-22T11:38:11.931Z,1006.66
2023-05-22T11:39:11.922Z,1006.65
2023-05-22T11:40:12.037Z,1006.65
2023-05-22T11:41:11.898Z,1006.64
2023-05-22T11:42:11.892Z,1006.70
2023-05-22T11:43:11.882Z,1006.66
2023-05-22T11:44:11.877Z,1006.61
2023-05-22T11:45:11.897Z,1006.60
2023-05-22T11:46:11.858Z,1006.64
2023-05-22T11:47:11.841Z,1006.59
2023-05-22T11:48:14.692Z,1006.63
2023-05-22T11:49:11.824Z,1006.63
2023-05-22T11:50:11.815Z,1006.55
2023-05-22T11:51:11.804Z,1006.60
2023-05-22T11:52:11.795Z,1006.61
2023-05-22T11:53:11.787Z,1006.55
2023-05-22T11:54:11.779Z,1006.60
2023-05-22T11:55:11.762Z,1006.56
2023-05-22T11:56:11.870Z,1006.58
2023-05-22T11:57:11.737Z,1006.56
2023-05-22T11:58:11.733Z,1006.58
2023-05-22T11:59:11.719Z,1006.55
2023-05-22T12:00:11.747Z,1006.49
2023-05-22T12:01:11.697Z,1006.50
2023-05-22T12:02:11.702Z,1006.52
2023-05-22T12:03:11.709Z,1006.52
2023-05-22T12:04:11.780Z,1006.45
2023-05-22T12:05:11.654Z,1006.49